Charlottesville, VA (22901)

9:34 AM EDT on September 20, 2014 (GMT -0400)
Ivy | Change Station
CLOSE
Current Station
Personal Weather Station
Location: Charlottesville, VA
Elevation: 650 ft
Nearby Weather Stations

Elev 650 ft 38.08 °N, 78.59 °W | Updated 10 seconds ago

Partly Cloudy
Partly Cloudy
62.0 °F
Feels Like 62.0 °F
N
0.0
Wind Variable Wind from WNW
Gusts 0.0 mph

Today
High -- | Low -- °F
--% Chance of Precip.
Yesterday
High -- | Low -- °F
Precip. -- in
7:00 AM 7:14 PM
Waning Crescent, 12% visible
Pressure 30.26 in
Visibility 3.0 miles
Clouds Few 300 ft
Scattered Clouds 9000 ft
Dew Point Not available.
Humidity Not available.
Rainfall 0.00 in
Snow Depth Not available.
UV 1 out of 12
Pollen 5.60 out of 12
Air Quality Not available.
Flu Activity Not available.
SPECI KCHO 201232Z 00000KT 3SM BR FEW003 SCT090 16/16 A3026 RMK AO2 T01610156

More Conditions Fewer Conditions

Pressure 30.26 in
Visibility 3.0 miles
Clouds Few 300 ft
Scattered Clouds 9000 ft
Dew Point Not available.
Humidity Not available.
Rainfall 0.00 in
Snow Depth Not available.
UV 1 out of 12
Pollen 5.60 out of 12
Air Quality Not available.
Flu Activity Not available.
SPECI KCHO 201232Z 00000KT 3SM BR FEW003 SCT090 16/16 A3026 RMK AO2 T01610156

More Conditions Fewer Conditions

10-Day Weather Forecast

Almanac

Astronomy

Sep. 20, 2014 Rise Set
Actual Time 7:00 AM EDT 7:14 PM EDT
Civil Twilight 6:33 AM EDT 7:40 PM EDT
Nautical Twilight 6:02 AM EDT 8:11 PM EDT
Astronomical Twilight 5:31 AM EDT 8:42 PM EDT
Moon 3:40 AM EDT 5:14 PM EDT
Length of Visible Light 13h 06m
Length of Day
12h 14m
Tomorrow will be 2m 26s shorter.
Waning Crescent, 12% of the Moon is Illuminated
Today
Waning Crescent
Sep 24
New
Oct 1
First Quarter
Oct 8
Full
Oct 15
Last Quarter

Today's Extremes

State Highs State Lows

Community

WunderPhotos

Upload Photos

1,754,858 photos uploaded!

Nearby

Snow Depth

Station Depth Elevation
No new snow has been reported.

Earthquake Activity

City Distance Mag. Time & Date
No recent earthquake activity has been reported nearby.
Minimum magnitude displayed is 2.5.

Coastal Water Temperatures

Place Temperature
No Stations Reporting

Nearby Weather Stations